createdAt,value
2019-02-04T00:00:16.830Z,19.17
2019-02-04T00:02:48.881Z,18.73
2019-02-04T00:05:20.534Z,22.17
2019-02-04T00:07:52.266Z,21.90
2019-02-04T00:10:23.889Z,20.37
2019-02-04T00:12:55.526Z,21.47
2019-02-04T00:15:27.264Z,20.23
2019-02-04T00:17:58.894Z,19.77
2019-02-04T00:20:30.527Z,20.83
2019-02-04T00:23:02.350Z,21.30
2019-02-04T00:25:34.112Z,20.47
2019-02-04T00:28:05.955Z,21.50
2019-02-04T00:30:37.703Z,22.03
2019-02-04T00:33:09.530Z,21.93
2019-02-04T00:35:41.236Z,22.50
2019-02-04T00:38:13.310Z,26.00
2019-02-04T00:40:44.958Z,27.17
2019-02-04T00:43:16.589Z,26.53
2019-02-04T00:45:48.225Z,27.47
2019-02-04T00:48:19.864Z,26.53
2019-02-04T00:50:51.913Z,28.47
2019-02-04T00:53:23.526Z,26.83
2019-02-04T00:55:55.185Z,26.40
2019-02-04T00:58:26.813Z,27.60
2019-02-04T01:00:58.549Z,26.30
2019-02-04T01:03:30.394Z,28.73
2019-02-04T01:06:02.253Z,26.40
2019-02-04T01:08:33.877Z,26.67
2019-02-04T01:11:05.625Z,26.77
2019-02-04T01:13:37.374Z,28.57
2019-02-04T01:16:09.104Z,27.70
2019-02-04T01:18:40.743Z,26.87
2019-02-04T01:21:12.386Z,27.77
2019-02-04T01:23:44.025Z,26.70
2019-02-04T01:26:15.752Z,28.20
2019-02-04T01:28:47.404Z,26.93
2019-02-04T01:31:19.067Z,28.03
2019-02-04T01:33:50.685Z,28.67
2019-02-04T01:36:22.321Z,26.57
2019-02-04T01:38:54.354Z,27.50
2019-02-04T01:41:26.104Z,28.23
2019-02-04T01:43:57.745Z,25.13
2019-02-04T01:46:29.398Z,24.73
2019-02-04T01:49:01.052Z,24.97
2019-02-04T01:51:33.083Z,26.10
2019-02-04T01:54:04.826Z,24.53
2019-02-04T01:56:36.478Z,25.03
2019-02-04T01:59:08.112Z,25.50
2019-02-04T02:01:39.752Z,25.00
2019-02-04T02:04:11.385Z,24.23
2019-02-04T02:06:43.030Z,23.33
2019-02-04T02:09:22.875Z,23.67
2019-02-04T02:11:54.693Z,24.23
2019-02-04T02:14:26.629Z,23.83
2019-02-04T02:16:58.407Z,24.10
2019-02-04T02:19:30.426Z,25.37
2019-02-04T02:22:02.078Z,23.53
2019-02-04T02:24:33.708Z,24.50
2019-02-04T02:27:05.440Z,23.70
2019-02-04T02:29:37.060Z,23.63
2019-02-04T02:32:08.717Z,22.77
2019-02-04T02:34:40.346Z,22.23
2019-02-04T02:37:11.981Z,21.00
2019-02-04T02:39:43.606Z,22.00
2019-02-04T02:42:15.262Z,22.57
2019-02-04T02:44:46.901Z,21.37
2019-02-04T02:47:18.559Z,21.87
2019-02-04T02:49:50.186Z,20.90
2019-02-04T02:52:21.837Z,21.53
2019-02-04T02:54:53.565Z,21.03
2019-02-04T02:57:25.193Z,21.07
2019-02-04T02:59:56.837Z,22.13
2019-02-04T03:02:28.487Z,21.10
2019-02-04T03:05:00.325Z,22.83
2019-02-04T03:07:32.062Z,20.80
2019-02-04T03:10:04.501Z,23.87
2019-02-04T03:12:36.191Z,21.47
2019-02-04T03:15:08.786Z,21.70
2019-02-04T03:17:51.610Z,20.13
2019-02-04T03:20:14.592Z,19.87
2019-02-04T03:22:46.236Z,19.20
2019-02-04T03:25:18.162Z,20.83
2019-02-04T03:27:49.913Z,20.57
2019-02-04T03:30:27.198Z,21.60
2019-02-04T03:32:58.934Z,19.90
2019-02-04T03:35:30.669Z,20.03
2019-02-04T03:38:02.810Z,19.80
2019-02-04T03:40:34.545Z,18.90
2019-02-04T03:43:06.306Z,20.23
2019-02-04T03:45:37.925Z,19.77
2019-02-04T03:48:09.748Z,20.33
2019-02-04T03:50:41.413Z,19.33
2019-02-04T03:53:13.153Z,18.67
2019-02-04T03:55:44.778Z,19.77
2019-02-04T03:58:16.412Z,19.10
2019-02-04T04:00:48.145Z,20.13
2019-02-04T04:03:20.006Z,22.43
2019-02-04T04:05:51.725Z,19.53
2019-02-04T04:08:23.362Z,22.07
2019-02-04T04:10:54.990Z,18.83
2019-02-04T04:13:26.670Z,20.43
2019-02-04T04:15:58.314Z,19.83
2019-02-04T04:18:30.029Z,18.37
2019-02-04T04:21:01.755Z,21.03
2019-02-04T04:23:33.519Z,21.57
2019-02-04T04:26:05.548Z,19.90
2019-02-04T04:28:37.406Z,20.50
2019-02-04T04:31:09.016Z,22.73
2019-02-04T04:33:40.666Z,20.77
2019-02-04T04:36:12.297Z,22.27
2019-02-04T04:38:44.240Z,21.60
2019-02-04T04:41:15.868Z,21.03
2019-02-04T04:43:47.606Z,20.90
2019-02-04T04:46:19.229Z,23.13
2019-02-04T04:48:50.860Z,23.50
2019-02-04T04:51:22.486Z,24.00
2019-02-04T04:53:54.117Z,23.60
2019-02-04T04:56:25.741Z,23.27
2019-02-04T04:58:57.482Z,26.10
2019-02-04T05:01:29.098Z,22.27
2019-02-04T05:04:00.754Z,24.80
2019-02-04T05:06:32.480Z,24.90
2019-02-04T05:09:05.724Z,26.37
2019-02-04T05:11:37.386Z,26.20
2019-02-04T05:14:09.193Z,25.30
2019-02-04T05:16:40.892Z,27.53
2019-02-04T05:19:12.552Z,26.70
2019-02-04T05:21:44.182Z,25.93
2019-02-04T05:24:15.839Z,28.97
2019-02-04T05:26:47.914Z,28.83
2019-02-04T05:29:19.604Z,31.57
2019-02-04T05:31:54.553Z,30.30
2019-02-04T05:34:26.196Z,31.10
2019-02-04T05:36:57.817Z,31.73
2019-02-04T05:39:29.457Z,30.37
2019-02-04T05:42:01.183Z,29.80
2019-02-04T05:44:32.841Z,32.37
2019-02-04T05:47:04.458Z,30.13
2019-02-04T05:49:36.097Z,31.13
2019-02-04T05:52:07.825Z,32.63
2019-02-04T05:54:39.460Z,30.73
2019-02-04T05:57:11.085Z,29.57
2019-02-04T05:59:42.754Z,33.30
2019-02-04T06:02:14.380Z,32.53
2019-02-04T06:04:46.058Z,33.17
2019-02-04T06:07:17.791Z,30.13
2019-02-04T06:09:49.424Z,32.33
2019-02-04T06:12:21.038Z,31.90
2019-02-04T06:14:53.010Z,32.50
2019-02-04T06:17:24.629Z,32.67
2019-02-04T06:19:56.265Z,32.67
2019-02-04T06:22:27.896Z,32.97
2019-02-04T06:24:59.560Z,30.60
2019-02-04T06:27:31.588Z,30.83
2019-02-04T06:30:04.304Z,34.23
2019-02-04T06:32:36.074Z,34.40
2019-02-04T06:35:08.030Z,34.20
2019-02-04T06:37:39.857Z,33.63
2019-02-04T06:40:12.018Z,34.10
2019-02-04T06:42:43.890Z,35.43
2019-02-04T06:45:15.947Z,34.13
2019-02-04T06:47:47.996Z,34.57
2019-02-04T06:50:19.816Z,35.37
2019-02-04T06:52:51.534Z,36.80
2019-02-04T06:55:25.906Z,34.30
2019-02-04T06:57:57.743Z,33.47
2019-02-04T07:00:29.392Z,32.80
2019-02-04T07:03:01.524Z,35.07
2019-02-04T07:05:43.561Z,32.57
2019-02-04T07:08:06.821Z,31.40
2019-02-04T07:10:38.471Z,33.97
2019-02-04T07:13:10.108Z,33.87
2019-02-04T07:15:42.153Z,31.57
2019-02-04T07:18:13.919Z,33.77
2019-02-04T07:20:45.556Z,38.20
2019-02-04T07:23:17.178Z,35.43
2019-02-04T07:25:48.841Z,35.83
2019-02-04T07:28:20.765Z,36.10
2019-02-04T07:30:52.502Z,38.97
2019-02-04T07:33:24.125Z,37.50
2019-02-04T07:35:55.765Z,42.87
2019-02-04T07:38:27.396Z,44.17
2019-02-04T07:40:59.325Z,45.20
2019-02-04T07:43:30.970Z,42.90
2019-02-04T07:46:02.834Z,35.57
2019-02-04T07:48:34.541Z,29.33
2019-02-04T07:51:06.190Z,23.47
2019-02-04T07:53:38.136Z,20.77
2019-02-04T07:56:09.769Z,18.17
2019-02-04T07:58:41.394Z,16.07
2019-02-04T08:01:13.125Z,14.27
2019-02-04T08:03:44.782Z,12.40
2019-02-04T08:06:16.484Z,12.00
2019-02-04T08:08:48.103Z,11.00
2019-02-04T08:11:19.744Z,10.47
2019-02-04T08:13:52.062Z,9.83
2019-02-04T08:16:23.690Z,9.77
2019-02-04T08:18:55.308Z,9.37
2019-02-04T08:21:26.941Z,8.17
2019-02-04T08:23:58.567Z,7.60
2019-02-04T08:26:30.239Z,7.70
2019-02-04T08:29:01.877Z,7.33
2019-02-04T08:31:33.530Z,8.57
2019-02-04T08:34:05.252Z,7.00
2019-02-04T08:36:44.526Z,7.43
2019-02-04T08:39:10.407Z,7.33
2019-02-04T08:41:42.139Z,8.27
2019-02-04T08:44:13.859Z,8.97
2019-02-04T08:46:45.489Z,8.70
2019-02-04T08:49:17.133Z,8.53
2019-02-04T08:51:48.772Z,8.67
2019-02-04T08:54:20.494Z,9.27
2019-02-04T08:56:53.274Z,8.30
2019-02-04T08:59:24.985Z,8.53
2019-02-04T09:01:56.621Z,8.63
2019-02-04T09:04:28.328Z,8.13
2019-02-04T09:06:59.985Z,7.87
2019-02-04T09:09:31.811Z,5.90
2019-02-04T09:12:05.144Z,6.40
2019-02-04T09:14:36.765Z,6.57
2019-02-04T09:17:08.508Z,6.57
2019-02-04T09:19:40.126Z,6.13
2019-02-04T09:22:11.978Z,6.40
2019-02-04T09:24:43.590Z,6.07
2019-02-04T09:27:15.225Z,6.17
2019-02-04T09:29:46.838Z,6.40
2019-02-04T09:32:18.472Z,5.30
2019-02-04T09:34:50.406Z,5.50
2019-02-04T09:37:22.038Z,6.17
2019-02-04T09:39:53.666Z,6.07
2019-02-04T09:42:25.397Z,6.17
2019-02-04T09:44:57.023Z,5.50
2019-02-04T09:47:28.959Z,5.13
2019-02-04T09:50:00.679Z,5.60
2019-02-04T09:52:32.421Z,4.53
2019-02-04T09:55:06.046Z,4.27
2019-02-04T09:57:37.676Z,4.10
2019-02-04T10:00:12.342Z,4.47
2019-02-04T10:02:44.080Z,3.93
2019-02-04T10:05:17.153Z,4.10
2019-02-04T10:07:49.010Z,4.30
2019-02-04T10:10:22.561Z,4.40
2019-02-04T10:12:54.355Z,4.53
2019-02-04T10:15:28.335Z,4.10
2019-02-04T10:18:00.178Z,3.87
2019-02-04T10:20:34.429Z,3.97
2019-02-04T10:23:06.148Z,3.37
2019-02-04T10:25:39.704Z,2.97
2019-02-04T10:28:12.284Z,3.97
2019-02-04T10:30:44.518Z,2.60
2019-02-04T10:33:16.522Z,3.57
2019-02-04T10:35:48.147Z,4.00
2019-02-04T10:38:19.772Z,5.90
2019-02-04T10:40:51.438Z,7.37
2019-02-04T10:43:23.148Z,3.73
2019-02-04T10:45:55.143Z,8.80
2019-02-04T10:48:26.931Z,7.20
2019-02-04T10:50:58.579Z,5.50
2019-02-04T10:53:30.276Z,6.73
2019-02-04T10:56:02.202Z,4.30
2019-02-04T10:58:34.124Z,3.50
2019-02-04T11:01:05.975Z,3.10
2019-02-04T11:03:37.782Z,3.27
2019-02-04T11:06:09.529Z,2.60
2019-02-04T11:08:41.262Z,2.43
2019-02-04T11:11:12.911Z,2.90
2019-02-04T11:13:44.641Z,2.57
2019-02-04T11:16:16.364Z,4.07
2019-02-04T11:18:48.082Z,2.70
2019-02-04T11:21:19.855Z,2.77
2019-02-04T11:23:51.528Z,3.10
2019-02-04T11:26:23.186Z,3.17
2019-02-04T11:28:54.954Z,2.97
2019-02-04T11:31:26.657Z,2.70
2019-02-04T11:33:58.284Z,2.70
2019-02-04T11:36:29.943Z,4.00
2019-02-04T11:39:01.641Z,2.70
2019-02-04T11:41:33.399Z,2.67
2019-02-04T11:44:05.098Z,2.80
2019-02-04T11:46:36.743Z,3.43
2019-02-04T11:49:08.473Z,2.63
2019-02-04T11:51:40.089Z,2.97
2019-02-04T11:54:11.733Z,3.40
2019-02-04T11:56:43.351Z,3.90
2019-02-04T11:59:15.386Z,4.27
2019-02-04T12:01:47.115Z,3.40
2019-02-04T12:04:18.753Z,2.80
2019-02-04T12:06:50.393Z,2.43
2019-02-04T12:09:22.117Z,4.47
2019-02-04T12:11:55.776Z,4.33
2019-02-04T12:14:27.588Z,4.13
2019-02-04T12:16:59.265Z,3.43
2019-02-04T12:19:30.950Z,3.03
2019-02-04T12:22:02.905Z,3.90
2019-02-04T12:24:34.902Z,4.60
2019-02-04T12:27:06.527Z,3.80
2019-02-04T12:29:38.249Z,5.63
2019-02-04T12:32:09.882Z,5.37
2019-02-04T12:34:41.744Z,3.87
2019-02-04T12:37:13.364Z,4.23
2019-02-04T12:39:45.201Z,3.63
2019-02-04T12:42:16.929Z,4.40
2019-02-04T12:44:48.573Z,3.90
2019-02-04T12:47:20.292Z,5.50
2019-02-04T12:49:52.136Z,5.37
2019-02-04T12:52:23.745Z,5.60
2019-02-04T12:54:55.399Z,3.90
2019-02-04T12:57:27.031Z,4.13
2019-02-04T12:59:58.706Z,3.93
2019-02-04T13:02:30.418Z,3.97
2019-02-04T13:05:02.753Z,5.20
2019-02-04T13:07:34.402Z,3.80
2019-02-04T13:10:07.133Z,4.37
2019-02-04T13:12:38.758Z,3.70
2019-02-04T13:15:13.117Z,4.70
2019-02-04T13:17:44.953Z,6.13
2019-02-04T13:20:19.280Z,5.30
2019-02-04T13:22:51.022Z,7.43
2019-02-04T13:25:24.742Z,5.47
2019-02-04T13:27:56.875Z,5.03
2019-02-04T13:30:28.927Z,6.80
2019-02-04T13:33:00.659Z,7.37
2019-02-04T13:35:32.501Z,5.80
2019-02-04T13:38:04.514Z,7.53
2019-02-04T13:40:36.338Z,7.77
2019-02-04T13:43:08.169Z,8.30
2019-02-04T13:45:40.006Z,8.03
2019-02-04T13:48:11.741Z,10.10
2019-02-04T13:50:43.396Z,8.93
2019-02-04T13:53:15.032Z,9.20
2019-02-04T13:55:46.685Z,9.33
2019-02-04T13:58:18.298Z,8.43
2019-02-04T14:00:51.841Z,9.07
2019-02-04T14:03:23.466Z,9.20
2019-02-04T14:05:55.202Z,8.23
2019-02-04T14:08:26.837Z,8.70
2019-02-04T14:10:58.470Z,9.17
2019-02-04T14:13:30.297Z,9.77
2019-02-04T14:16:02.170Z,8.10
2019-02-04T14:18:34.629Z,8.03
2019-02-04T14:21:08.720Z,8.90
2019-02-04T14:23:40.034Z,9.77
2019-02-04T14:26:11.691Z,8.40
2019-02-04T14:28:43.526Z,8.17
2019-02-04T14:31:15.160Z,8.00
2019-02-04T14:33:46.858Z,7.87
2019-02-04T14:36:18.847Z,8.27
2019-02-04T14:38:50.777Z,9.03
2019-02-04T14:41:22.510Z,7.60
2019-02-04T14:44:12.659Z,8.67
2019-02-04T14:47:02.257Z,7.87
2019-02-04T14:50:04.000Z,7.33
2019-02-04T14:53:10.774Z,7.73
2019-02-04T14:56:27.119Z,8.73
2019-02-04T14:59:27.943Z,7.60
2019-02-04T15:02:56.798Z,10.17
2019-02-04T15:06:13.505Z,7.60
2019-02-04T15:09:11.796Z,9.23
2019-02-04T15:12:13.327Z,9.17
2019-02-04T15:15:12.528Z,8.40
2019-02-04T15:18:26.810Z,8.17
2019-02-04T15:21:09.949Z,8.70
2019-02-04T15:23:53.256Z,9.40
2019-02-04T15:26:47.278Z,11.10
2019-02-04T15:29:29.113Z,8.83
2019-02-04T15:32:29.341Z,10.90
2019-02-04T15:35:34.400Z,10.57
2019-02-04T15:38:18.940Z,8.80
2019-02-04T15:41:18.881Z,12.30
2019-02-04T15:44:35.558Z,10.20
2019-02-04T15:47:14.584Z,11.17
2019-02-04T15:50:19.828Z,10.23
2019-02-04T15:52:51.453Z,10.97
2019-02-04T15:55:23.114Z,12.30
2019-02-04T15:57:54.854Z,11.13
2019-02-04T16:00:26.702Z,12.63
2019-02-04T16:02:58.348Z,12.87
2019-02-04T16:05:29.973Z,12.47
2019-02-04T16:08:01.625Z,11.23
2019-02-04T16:10:33.326Z,12.07
2019-02-04T16:13:05.061Z,11.63
2019-02-04T16:15:36.697Z,12.47
2019-02-04T16:18:08.324Z,11.43
2019-02-04T16:20:40.013Z,12.47
2019-02-04T16:23:11.750Z,11.33
2019-02-04T16:25:43.391Z,11.63
2019-02-04T16:28:15.098Z,11.83
2019-02-04T16:30:46.732Z,11.77
2019-02-04T16:33:18.361Z,11.63
2019-02-04T16:35:50.018Z,12.50
2019-02-04T16:38:21.754Z,13.50
2019-02-04T16:40:53.386Z,13.03
2019-02-04T16:43:25.024Z,13.17
2019-02-04T16:45:56.870Z,12.43
2019-02-04T16:48:28.505Z,13.97
2019-02-04T16:51:11.270Z,13.53
2019-02-04T16:53:33.663Z,13.97
2019-02-04T16:56:05.510Z,15.27
2019-02-04T16:58:37.141Z,15.13
2019-02-04T17:01:08.778Z,14.40
2019-02-04T17:03:40.422Z,14.23
2019-02-04T17:06:12.073Z,14.90
2019-02-04T17:08:43.718Z,13.53
2019-02-04T17:11:15.489Z,15.07
2019-02-04T17:13:47.244Z,15.10
2019-02-04T17:16:18.971Z,14.60
2019-02-04T17:18:50.600Z,14.50
2019-02-04T17:21:22.236Z,14.33
2019-02-04T17:23:53.883Z,11.53
2019-02-04T17:26:25.542Z,15.90
2019-02-04T17:28:57.176Z,14.60
2019-02-04T17:31:28.848Z,14.60
2019-02-04T17:34:00.561Z,14.50
2019-02-04T17:36:32.204Z,13.90
2019-02-04T17:39:06.278Z,15.10
2019-02-04T17:41:38.220Z,11.70
2019-02-04T17:44:10.160Z,14.63
2019-02-04T17:46:41.805Z,14.20
2019-02-04T17:49:13.546Z,15.17
2019-02-04T17:51:45.225Z,14.30
2019-02-04T17:54:16.930Z,14.70
2019-02-04T17:56:48.879Z,14.87
2019-02-04T17:59:23.095Z,11.73
2019-02-04T18:01:54.201Z,12.30
2019-02-04T18:04:25.994Z,11.07
2019-02-04T18:06:57.653Z,14.20
2019-02-04T18:09:29.391Z,12.00
2019-02-04T18:12:01.267Z,11.03
2019-02-04T18:14:32.904Z,12.03
2019-02-04T18:17:04.769Z,11.03
2019-02-04T18:19:36.402Z,12.47
2019-02-04T18:22:08.042Z,11.03
2019-02-04T18:24:39.689Z,12.30
2019-02-04T18:27:11.758Z,11.87
2019-02-04T18:29:43.398Z,11.63
2019-02-04T18:32:15.342Z,11.83
2019-02-04T18:34:47.168Z,11.77
2019-02-04T18:37:19.019Z,12.33
2019-02-04T18:39:50.766Z,9.97
2019-02-04T18:42:22.518Z,10.13
2019-02-04T18:44:54.561Z,10.43
2019-02-04T18:47:26.312Z,9.87
2019-02-04T18:49:57.982Z,11.20
2019-02-04T18:52:29.938Z,9.60
2019-02-04T18:55:01.592Z,11.27
2019-02-04T18:57:33.343Z,10.87
2019-02-04T19:00:05.857Z,10.97
2019-02-04T19:02:37.516Z,10.20
2019-02-04T19:05:09.386Z,10.77
2019-02-04T19:07:41.352Z,11.07
2019-02-04T19:10:14.580Z,10.40
2019-02-04T19:12:46.532Z,9.83
2019-02-04T19:15:19.605Z,10.70
2019-02-04T19:17:53.582Z,11.70
2019-02-04T19:20:25.317Z,10.67
2019-02-04T19:22:57.075Z,11.00
2019-02-04T19:25:28.751Z,11.50
2019-02-04T19:28:00.406Z,10.70
2019-02-04T19:30:41.687Z,11.63
2019-02-04T19:33:13.528Z,11.30
2019-02-04T19:35:45.148Z,10.43
2019-02-04T19:38:16.802Z,10.70
2019-02-04T19:40:48.441Z,9.93
2019-02-04T19:43:20.406Z,11.10
2019-02-04T19:45:52.090Z,10.53
2019-02-04T19:48:23.765Z,10.77
2019-02-04T19:50:55.425Z,11.20
2019-02-04T19:53:27.083Z,10.97
2019-02-04T19:55:59.005Z,10.60
2019-02-04T19:58:30.646Z,10.43
2019-02-04T20:01:02.543Z,9.97
2019-02-04T20:03:37.023Z,11.83
2019-02-04T20:06:08.287Z,11.80
2019-02-04T20:08:40.058Z,10.33
2019-02-04T20:11:11.828Z,11.27
2019-02-04T20:13:43.479Z,11.30
2019-02-04T20:16:15.138Z,11.50
2019-02-04T20:18:46.869Z,12.37
2019-02-04T20:21:20.310Z,11.03
2019-02-04T20:23:52.160Z,11.80
2019-02-04T20:26:24.008Z,10.70
2019-02-04T20:28:55.804Z,11.80
2019-02-04T20:31:27.469Z,11.93
2019-02-04T20:33:59.225Z,11.60
2019-02-04T20:36:30.851Z,11.57
2019-02-04T20:39:05.996Z,12.30
2019-02-04T20:41:38.302Z,9.27
2019-02-04T20:44:10.035Z,10.63
2019-02-04T20:46:41.690Z,10.40
2019-02-04T20:49:13.441Z,11.87
2019-02-04T20:51:45.133Z,12.03
2019-02-04T20:54:20.110Z,11.43
2019-02-04T20:56:51.366Z,11.20
2019-02-04T20:59:23.054Z,10.47
2019-02-04T21:01:54.698Z,11.10
2019-02-04T21:04:26.647Z,11.77
2019-02-04T21:06:58.312Z,11.03
2019-02-04T21:09:30.444Z,10.53
2019-02-04T21:12:02.167Z,11.97
2019-02-04T21:14:33.833Z,11.83
2019-02-04T21:17:05.553Z,9.97
2019-02-04T21:19:37.190Z,10.47
2019-02-04T21:22:09.121Z,11.33
2019-02-04T21:24:40.761Z,10.93
2019-02-04T21:27:12.415Z,10.10
2019-02-04T21:29:44.061Z,10.53
2019-02-04T21:32:15.694Z,10.40
2019-02-04T21:34:47.745Z,11.27
2019-02-04T21:37:19.454Z,10.93
2019-02-04T21:39:51.142Z,11.67
2019-02-04T21:42:22.773Z,9.73
2019-02-04T21:44:54.440Z,10.37
2019-02-04T21:47:26.464Z,10.23
2019-02-04T21:50:00.037Z,9.90
2019-02-04T21:52:31.646Z,9.77
2019-02-04T21:55:08.435Z,10.53
2019-02-04T21:57:38.000Z,10.83
2019-02-04T22:00:13.193Z,7.53
2019-02-04T22:02:45.022Z,10.13
2019-02-04T22:05:17.631Z,9.20
2019-02-04T22:07:49.538Z,9.70
2019-02-04T22:10:23.337Z,7.27
2019-02-04T22:12:55.173Z,8.83
2019-02-04T22:15:27.116Z,8.30
2019-02-04T22:17:58.745Z,7.67
2019-02-04T22:20:30.482Z,6.80
2019-02-04T22:23:02.111Z,8.67
2019-02-04T22:25:33.749Z,9.17
2019-02-04T22:28:05.520Z,7.20
2019-02-04T22:30:37.294Z,8.00
2019-02-04T22:33:09.309Z,7.67
2019-02-04T22:35:41.087Z,8.57
2019-02-04T22:38:12.710Z,8.17
2019-02-04T22:40:44.365Z,6.80
2019-02-04T22:43:16.012Z,7.87
2019-02-04T22:45:48.045Z,6.13
2019-02-04T22:48:19.671Z,8.37
2019-02-04T22:50:51.409Z,8.83
2019-02-04T22:53:23.141Z,7.90
2019-02-04T22:55:57.575Z,6.67
2019-02-04T22:58:29.197Z,7.43
2019-02-04T23:01:35.599Z,7.13
2019-02-04T23:04:07.750Z,7.13
2019-02-04T23:06:39.512Z,7.80
2019-02-04T23:09:11.242Z,8.20
2019-02-04T23:11:43.097Z,7.23
2019-02-04T23:14:14.749Z,7.10
2019-02-04T23:16:46.382Z,7.13
2019-02-04T23:19:18.104Z,6.93
2019-02-04T23:21:49.733Z,7.37
2019-02-04T23:24:21.449Z,8.50
2019-02-04T23:26:53.111Z,6.83
2019-02-04T23:29:24.730Z,7.30
2019-02-04T23:31:56.761Z,7.33
2019-02-04T23:34:28.378Z,6.80
2019-02-04T23:37:00.006Z,7.57
2019-02-04T23:39:31.641Z,6.53
2019-02-04T23:42:03.387Z,7.00
2019-02-04T23:44:35.531Z,7.77
2019-02-04T23:47:07.258Z,6.90
2019-02-04T23:49:38.881Z,7.17
2019-02-04T23:52:10.622Z,5.20
2019-02-04T23:54:42.241Z,6.37
2019-02-04T23:57:14.076Z,7.87
2019-02-04T23:59:45.715Z,7.17
